sensor_id;sensor_type;location;lat;lon;timestamp;P1;durP1;ratioP1;P2;durP2;ratioP2
70253;SDS011;57649;42.968;1.608;2023-02-28T00:03:42;7.95;;;6.60;;
70253;SDS011;57649;42.968;1.608;2023-02-28T00:06:07;11.70;;;7.30;;
70253;SDS011;57649;42.968;1.608;2023-02-28T00:08:34;9.18;;;6.72;;
70253;SDS011;57649;42.968;1.608;2023-02-28T00:11:01;9.02;;;6.70;;
70253;SDS011;57649;42.968;1.608;2023-02-28T00:13:31;10.45;;;6.80;;
70253;SDS011;57649;42.968;1.608;2023-02-28T00:16:02;10.13;;;6.50;;
70253;SDS011;57649;42.968;1.608;2023-02-28T00:18:39;7.32;;;6.25;;
70253;SDS011;57649;42.968;1.608;2023-02-28T00:21:06;6.85;;;6.05;;
70253;SDS011;57649;42.968;1.608;2023-02-28T00:23:31;6.40;;;5.47;;
70253;SDS011;57649;42.968;1.608;2023-02-28T00:25:57;7.22;;;6.22;;
70253;SDS011;57649;42.968;1.608;2023-02-28T00:28:23;6.72;;;5.35;;
70253;SDS011;57649;42.968;1.608;2023-02-28T00:30:49;5.80;;;4.70;;
70253;SDS011;57649;42.968;1.608;2023-02-28T00:33:15;5.32;;;4.50;;
70253;SDS011;57649;42.968;1.608;2023-02-28T00:35:41;5.57;;;5.05;;
70253;SDS011;57649;42.968;1.608;2023-02-28T00:38:06;5.45;;;4.95;;
70253;SDS011;57649;42.968;1.608;2023-02-28T00:40:32;5.40;;;4.90;;
70253;SDS011;57649;42.968;1.608;2023-02-28T00:42:58;6.03;;;4.72;;
70253;SDS011;57649;42.968;1.608;2023-02-28T00:45:23;6.07;;;4.90;;
70253;SDS011;57649;42.968;1.608;2023-02-28T00:50:38;6.78;;;4.88;;
70253;SDS011;57649;42.968;1.608;2023-02-28T00:53:03;6.10;;;5.25;;
70253;SDS011;57649;42.968;1.608;2023-02-28T00:55:29;5.32;;;4.70;;
70253;SDS011;57649;42.968;1.608;2023-02-28T00:57:54;6.05;;;5.18;;
70253;SDS011;57649;42.968;1.608;2023-02-28T01:00:20;5.32;;;4.82;;
70253;SDS011;57649;42.968;1.608;2023-02-28T01:02:45;6.00;;;5.40;;
70253;SDS011;57649;42.968;1.608;2023-02-28T01:05:11;6.70;;;5.70;;
70253;SDS011;57649;42.968;1.608;2023-02-28T01:07:36;7.90;;;5.60;;
70253;SDS011;57649;42.968;1.608;2023-02-28T01:10:02;6.10;;;5.10;;
70253;SDS011;57649;42.968;1.608;2023-02-28T01:12:27;5.55;;;5.05;;
70253;SDS011;57649;42.968;1.608;2023-02-28T01:14:53;6.15;;;5.30;;
70253;SDS011;57649;42.968;1.608;2023-02-28T01:17:18;6.35;;;4.90;;
70253;SDS011;57649;42.968;1.608;2023-02-28T01:19:43;7.63;;;5.72;;
70253;SDS011;57649;42.968;1.608;2023-02-28T01:22:09;8.43;;;4.90;;
70253;SDS011;57649;42.968;1.608;2023-02-28T01:24:34;5.90;;;5.03;;
70253;SDS011;57649;42.968;1.608;2023-02-28T01:27:00;6.35;;;4.75;;
70253;SDS011;57649;42.968;1.608;2023-02-28T01:29:25;5.20;;;4.70;;
70253;SDS011;57649;42.968;1.608;2023-02-28T01:31:51;5.57;;;4.55;;
70253;SDS011;57649;42.968;1.608;2023-02-28T01:34:16;5.28;;;4.75;;
70253;SDS011;57649;42.968;1.608;2023-02-28T01:36:44;5.53;;;4.60;;
70253;SDS011;57649;42.968;1.608;2023-02-28T01:39:09;6.10;;;4.88;;
70253;SDS011;57649;42.968;1.608;2023-02-28T01:41:35;5.80;;;4.50;;
70253;SDS011;57649;42.968;1.608;2023-02-28T01:44:02;5.15;;;4.53;;
70253;SDS011;57649;42.968;1.608;2023-02-28T01:46:31;5.78;;;4.38;;
70253;SDS011;57649;42.968;1.608;2023-02-28T01:49:07;5.38;;;4.72;;
70253;SDS011;57649;42.968;1.608;2023-02-28T01:51:40;4.60;;;4.18;;
70253;SDS011;57649;42.968;1.608;2023-02-28T01:54:16;6.22;;;4.88;;
70253;SDS011;57649;42.968;1.608;2023-02-28T01:56:46;5.28;;;4.63;;
70253;SDS011;57649;42.968;1.608;2023-02-28T01:59:20;6.03;;;4.88;;
70253;SDS011;57649;42.968;1.608;2023-02-28T02:01:50;5.20;;;4.65;;
70253;SDS011;57649;42.968;1.608;2023-02-28T02:04:16;5.55;;;5.00;;
70253;SDS011;57649;42.968;1.608;2023-02-28T02:06:42;5.88;;;4.85;;
70253;SDS011;57649;42.968;1.608;2023-02-28T02:09:11;4.82;;;4.32;;
70253;SDS011;57649;42.968;1.608;2023-02-28T02:11:37;5.57;;;4.50;;
70253;SDS011;57649;42.968;1.608;2023-02-28T02:20:07;5.63;;;3.92;;
70253;SDS011;57649;42.968;1.608;2023-02-28T02:33:30;4.63;;;3.65;;
70253;SDS011;57649;42.968;1.608;2023-02-28T02:41:18;4.95;;;4.45;;
70253;SDS011;57649;42.968;1.608;2023-02-28T02:43:56;5.55;;;4.43;;
70253;SDS011;57649;42.968;1.608;2023-02-28T02:46:43;6.07;;;4.50;;
70253;SDS011;57649;42.968;1.608;2023-02-28T02:49:12;5.95;;;4.68;;
70253;SDS011;57649;42.968;1.608;2023-02-28T02:51:44;5.28;;;4.22;;
70253;SDS011;57649;42.968;1.608;2023-02-28T02:54:26;6.22;;;4.70;;
70253;SDS011;57649;42.968;1.608;2023-02-28T02:56:54;4.78;;;4.28;;
70253;SDS011;57649;42.968;1.608;2023-02-28T02:59:23;5.22;;;4.57;;
70253;SDS011;57649;42.968;1.608;2023-02-28T03:01:51;6.28;;;4.43;;
70253;SDS011;57649;42.968;1.608;2023-02-28T03:04:21;5.13;;;4.07;;
70253;SDS011;57649;42.968;1.608;2023-02-28T03:06:50;4.90;;;4.40;;
70253;SDS011;57649;42.968;1.608;2023-02-28T03:09:20;5.22;;;4.65;;
70253;SDS011;57649;42.968;1.608;2023-02-28T03:11:49;4.88;;;4.05;;
70253;SDS011;57649;42.968;1.608;2023-02-28T03:14:39;5.28;;;4.63;;
70253;SDS011;57649;42.968;1.608;2023-02-28T03:33:36;5.97;;;4.30;;
70253;SDS011;57649;42.968;1.608;2023-02-28T03:36:09;5.05;;;4.40;;
70253;SDS011;57649;42.968;1.608;2023-02-28T03:39:11;5.72;;;4.72;;
70253;SDS011;57649;42.968;1.608;2023-02-28T03:41:36;5.47;;;4.57;;
70253;SDS011;57649;42.968;1.608;2023-02-28T03:44:09;5.10;;;4.60;;
70253;SDS011;57649;42.968;1.608;2023-02-28T03:46:41;5.78;;;5.07;;
70253;SDS011;57649;42.968;1.608;2023-02-28T03:49:15;5.55;;;4.80;;
70253;SDS011;57649;42.968;1.608;2023-02-28T03:51:45;5.45;;;4.93;;
70253;SDS011;57649;42.968;1.608;2023-02-28T03:54:15;6.45;;;5.30;;
70253;SDS011;57649;42.968;1.608;2023-02-28T03:56:51;6.65;;;5.22;;
70253;SDS011;57649;42.968;1.608;2023-02-28T03:59:28;6.68;;;5.25;;
70253;SDS011;57649;42.968;1.608;2023-02-28T04:01:57;6.75;;;5.30;;
70253;SDS011;57649;42.968;1.608;2023-02-28T04:04:23;7.38;;;5.70;;
70253;SDS011;57649;42.968;1.608;2023-02-28T04:06:52;5.53;;;5.03;;
70253;SDS011;57649;42.968;1.608;2023-02-28T04:09:26;19.05;;;6.32;;
70253;SDS011;57649;42.968;1.608;2023-02-28T04:11:52;17.58;;;6.68;;
70253;SDS011;57649;42.968;1.608;2023-02-28T04:14:18;7.15;;;5.20;;
70253;SDS011;57649;42.968;1.608;2023-02-28T04:16:44;5.88;;;4.93;;
70253;SDS011;57649;42.968;1.608;2023-02-28T04:19:11;6.38;;;5.55;;
70253;SDS011;57649;42.968;1.608;2023-02-28T04:21:39;8.07;;;6.07;;
70253;SDS011;57649;42.968;1.608;2023-02-28T04:24:10;6.97;;;5.40;;
70253;SDS011;57649;42.968;1.608;2023-02-28T04:26:44;6.60;;;5.90;;
70253;SDS011;57649;42.968;1.608;2023-02-28T04:31:37;6.05;;;5.03;;
70253;SDS011;57649;42.968;1.608;2023-02-28T04:34:03;8.27;;;5.43;;
70253;SDS011;57649;42.968;1.608;2023-02-28T04:36:29;7.43;;;5.20;;
70253;SDS011;57649;42.968;1.608;2023-02-28T04:38:54;9.23;;;6.57;;
70253;SDS011;57649;42.968;1.608;2023-02-28T04:41:20;9.88;;;6.22;;
70253;SDS011;57649;42.968;1.608;2023-02-28T04:43:47;9.30;;;7.22;;
70253;SDS011;57649;42.968;1.608;2023-02-28T04:46:13;10.88;;;7.75;;
70253;SDS011;57649;42.968;1.608;2023-02-28T04:48:39;13.00;;;7.40;;
70253;SDS011;57649;42.968;1.608;2023-02-28T04:51:08;9.00;;;7.03;;
70253;SDS011;57649;42.968;1.608;2023-02-28T04:53:36;14.80;;;6.90;;
70253;SDS011;57649;42.968;1.608;2023-02-28T04:56:02;10.50;;;6.00;;
70253;SDS011;57649;42.968;1.608;2023-02-28T04:58:28;7.05;;;5.93;;
70253;SDS011;57649;42.968;1.608;2023-02-28T05:00:55;10.98;;;9.07;;
70253;SDS011;57649;42.968;1.608;2023-02-28T05:03:27;8.98;;;7.35;;
70253;SDS011;57649;42.968;1.608;2023-02-28T05:05:52;10.15;;;7.70;;
70253;SDS011;57649;42.968;1.608;2023-02-28T05:08:18;8.10;;;6.82;;
70253;SDS011;57649;42.968;1.608;2023-02-28T05:10:43;6.55;;;5.82;;
70253;SDS011;57649;42.968;1.608;2023-02-28T05:13:11;10.63;;;6.30;;
70253;SDS011;57649;42.968;1.608;2023-02-28T05:15:37;8.40;;;6.28;;
70253;SDS011;57649;42.968;1.608;2023-02-28T05:18:02;9.77;;;6.25;;
70253;SDS011;57649;42.968;1.608;2023-02-28T05:20:28;12.63;;;6.68;;
70253;SDS011;57649;42.968;1.608;2023-02-28T05:22:53;7.43;;;6.07;;
70253;SDS011;57649;42.968;1.608;2023-02-28T05:25:19;7.45;;;6.13;;
70253;SDS011;57649;42.968;1.608;2023-02-28T05:27:47;6.93;;;5.82;;
70253;SDS011;57649;42.968;1.608;2023-02-28T05:30:12;7.95;;;6.28;;
70253;SDS011;57649;42.968;1.608;2023-02-28T05:32:38;10.57;;;6.57;;
70253;SDS011;57649;42.968;1.608;2023-02-28T05:35:07;8.35;;;6.57;;
70253;SDS011;57649;42.968;1.608;2023-02-28T05:37:34;7.75;;;5.63;;
70253;SDS011;57649;42.968;1.608;2023-02-28T05:39:59;7.93;;;6.22;;
70253;SDS011;57649;42.968;1.608;2023-02-28T05:42:25;11.80;;;6.68;;
70253;SDS011;57649;42.968;1.608;2023-02-28T05:44:50;8.88;;;6.05;;
70253;SDS011;57649;42.968;1.608;2023-02-28T05:47:16;6.75;;;5.53;;
70253;SDS011;57649;42.968;1.608;2023-02-28T05:49:42;12.05;;;6.30;;
70253;SDS011;57649;42.968;1.608;2023-02-28T05:52:07;6.70;;;5.80;;
70253;SDS011;57649;42.968;1.608;2023-02-28T05:54:33;7.65;;;5.75;;
70253;SDS011;57649;42.968;1.608;2023-02-28T05:56:58;10.90;;;6.10;;
70253;SDS011;57649;42.968;1.608;2023-02-28T05:59:24;7.97;;;5.85;;
70253;SDS011;57649;42.968;1.608;2023-02-28T06:01:50;9.32;;;6.70;;
70253;SDS011;57649;42.968;1.608;2023-02-28T06:04:17;8.45;;;6.35;;
70253;SDS011;57649;42.968;1.608;2023-02-28T06:06:49;10.63;;;6.65;;
70253;SDS011;57649;42.968;1.608;2023-02-28T06:09:15;8.68;;;6.40;;
70253;SDS011;57649;42.968;1.608;2023-02-28T06:11:41;12.57;;;6.97;;
70253;SDS011;57649;42.968;1.608;2023-02-28T06:14:07;7.80;;;6.88;;
70253;SDS011;57649;42.968;1.608;2023-02-28T06:16:41;6.47;;;5.78;;
70253;SDS011;57649;42.968;1.608;2023-02-28T06:19:08;9.05;;;7.13;;
70253;SDS011;57649;42.968;1.608;2023-02-28T06:21:35;8.77;;;6.82;;
70253;SDS011;57649;42.968;1.608;2023-02-28T06:24:01;7.82;;;6.55;;
70253;SDS011;57649;42.968;1.608;2023-02-28T06:26:28;12.70;;;7.75;;
70253;SDS011;57649;42.968;1.608;2023-02-28T06:28:53;7.65;;;6.47;;
70253;SDS011;57649;42.968;1.608;2023-02-28T06:31:19;8.73;;;7.00;;
70253;SDS011;57649;42.968;1.608;2023-02-28T06:33:46;10.88;;;7.55;;
70253;SDS011;57649;42.968;1.608;2023-02-28T06:36:13;11.77;;;7.28;;
70253;SDS011;57649;42.968;1.608;2023-02-28T06:38:39;11.55;;;7.90;;
70253;SDS011;57649;42.968;1.608;2023-02-28T06:41:06;8.43;;;7.40;;
70253;SDS011;57649;42.968;1.608;2023-02-28T06:43:33;8.43;;;6.85;;
70253;SDS011;57649;42.968;1.608;2023-02-28T06:46:02;9.38;;;7.13;;
70253;SDS011;57649;42.968;1.608;2023-02-28T06:48:31;12.88;;;8.80;;
70253;SDS011;57649;42.968;1.608;2023-02-28T06:53:28;17.40;;;10.70;;
70253;SDS011;57649;42.968;1.608;2023-02-28T06:55:54;12.73;;;8.10;;
70253;SDS011;57649;42.968;1.608;2023-02-28T06:58:19;9.70;;;8.30;;
70253;SDS011;57649;42.968;1.608;2023-02-28T07:00:45;12.10;;;9.18;;
70253;SDS011;57649;42.968;1.608;2023-02-28T07:03:15;11.02;;;8.63;;
70253;SDS011;57649;42.968;1.608;2023-02-28T07:05:41;10.50;;;8.13;;
70253;SDS011;57649;42.968;1.608;2023-02-28T07:08:06;10.15;;;8.25;;
70253;SDS011;57649;42.968;1.608;2023-02-28T07:10:32;13.85;;;9.23;;
70253;SDS011;57649;42.968;1.608;2023-02-28T07:12:58;12.65;;;8.32;;
70253;SDS011;57649;42.968;1.608;2023-02-28T07:15:25;8.10;;;6.75;;
70253;SDS011;57649;42.968;1.608;2023-02-28T07:17:50;8.48;;;7.35;;
70253;SDS011;57649;42.968;1.608;2023-02-28T07:20:16;11.00;;;7.70;;
70253;SDS011;57649;42.968;1.608;2023-02-28T07:22:41;9.07;;;6.57;;
70253;SDS011;57649;42.968;1.608;2023-02-28T07:25:07;10.93;;;7.25;;
70253;SDS011;57649;42.968;1.608;2023-02-28T07:27:33;8.20;;;7.05;;
70253;SDS011;57649;42.968;1.608;2023-02-28T07:29:59;12.30;;;7.03;;
70253;SDS011;57649;42.968;1.608;2023-02-28T07:32:26;13.50;;;9.43;;
70253;SDS011;57649;42.968;1.608;2023-02-28T07:34:52;9.90;;;7.20;;
70253;SDS011;57649;42.968;1.608;2023-02-28T07:37:18;8.65;;;6.38;;
70253;SDS011;57649;42.968;1.608;2023-02-28T07:39:44;8.23;;;5.97;;
70253;SDS011;57649;42.968;1.608;2023-02-28T07:42:09;7.78;;;6.20;;
70253;SDS011;57649;42.968;1.608;2023-02-28T07:44:37;10.90;;;7.35;;
70253;SDS011;57649;42.968;1.608;2023-02-28T07:47:06;8.63;;;6.28;;
70253;SDS011;57649;42.968;1.608;2023-02-28T07:49:37;8.60;;;7.00;;
70253;SDS011;57649;42.968;1.608;2023-02-28T07:52:04;9.02;;;6.25;;
70253;SDS011;57649;42.968;1.608;2023-02-28T07:54:30;11.40;;;7.65;;
70253;SDS011;57649;42.968;1.608;2023-02-28T07:56:56;14.82;;;9.10;;
70253;SDS011;57649;42.968;1.608;2023-02-28T07:59:22;11.05;;;7.25;;
70253;SDS011;57649;42.968;1.608;2023-02-28T08:01:47;10.98;;;8.05;;
70253;SDS011;57649;42.968;1.608;2023-02-28T08:04:17;8.18;;;6.68;;
70253;SDS011;57649;42.968;1.608;2023-02-28T08:06:43;9.85;;;7.18;;
70253;SDS011;57649;42.968;1.608;2023-02-28T08:09:09;11.93;;;6.25;;
70253;SDS011;57649;42.968;1.608;2023-02-28T08:11:34;9.75;;;6.90;;
70253;SDS011;57649;42.968;1.608;2023-02-28T08:14:01;8.57;;;6.68;;
70253;SDS011;57649;42.968;1.608;2023-02-28T08:16:26;6.35;;;5.60;;
70253;SDS011;57649;42.968;1.608;2023-02-28T08:18:52;8.18;;;5.80;;
70253;SDS011;57649;42.968;1.608;2023-02-28T08:21:18;7.50;;;5.65;;
70253;SDS011;57649;42.968;1.608;2023-02-28T08:23:46;6.68;;;5.53;;
70253;SDS011;57649;42.968;1.608;2023-02-28T08:26:13;6.50;;;5.33;;
70253;SDS011;57649;42.968;1.608;2023-02-28T08:28:39;14.52;;;6.13;;
70253;SDS011;57649;42.968;1.608;2023-02-28T08:31:11;10.80;;;5.85;;
70253;SDS011;57649;42.968;1.608;2023-02-28T08:33:38;7.95;;;6.43;;
70253;SDS011;57649;42.968;1.608;2023-02-28T08:36:04;7.60;;;5.50;;
70253;SDS011;57649;42.968;1.608;2023-02-28T08:38:30;9.68;;;5.50;;
70253;SDS011;57649;42.968;1.608;2023-02-28T08:41:06;8.73;;;5.40;;
70253;SDS011;57649;42.968;1.608;2023-02-28T08:43:34;6.63;;;5.70;;
70253;SDS011;57649;42.968;1.608;2023-02-28T08:46:00;7.53;;;5.43;;
70253;SDS011;57649;42.968;1.608;2023-02-28T08:48:27;5.88;;;4.93;;
70253;SDS011;57649;42.968;1.608;2023-02-28T08:50:58;6.90;;;5.20;;
70253;SDS011;57649;42.968;1.608;2023-02-28T08:53:25;7.63;;;5.60;;
70253;SDS011;57649;42.968;1.608;2023-02-28T08:56:04;8.93;;;5.22;;
70253;SDS011;57649;42.968;1.608;2023-02-28T08:58:31;8.10;;;5.18;;
70253;SDS011;57649;42.968;1.608;2023-02-28T09:00:57;8.65;;;5.40;;
70253;SDS011;57649;42.968;1.608;2023-02-28T09:03:23;6.82;;;5.10;;
70253;SDS011;57649;42.968;1.608;2023-02-28T09:05:53;5.68;;;5.05;;
70253;SDS011;57649;42.968;1.608;2023-02-28T09:08:18;7.85;;;5.32;;
70253;SDS011;57649;42.968;1.608;2023-02-28T09:10:44;6.63;;;5.07;;
70253;SDS011;57649;42.968;1.608;2023-02-28T09:13:09;7.72;;;5.90;;
70253;SDS011;57649;42.968;1.608;2023-02-28T09:15:36;8.23;;;5.53;;
70253;SDS011;57649;42.968;1.608;2023-02-28T09:18:02;9.30;;;5.43;;
70253;SDS011;57649;42.968;1.608;2023-02-28T09:20:28;9.40;;;5.35;;
70253;SDS011;57649;42.968;1.608;2023-02-28T09:22:53;7.82;;;4.93;;
70253;SDS011;57649;42.968;1.608;2023-02-28T09:25:19;5.72;;;4.70;;
70253;SDS011;57649;42.968;1.608;2023-02-28T09:27:44;9.13;;;4.85;;
70253;SDS011;57649;42.968;1.608;2023-02-28T09:30:10;6.05;;;4.82;;
70253;SDS011;57649;42.968;1.608;2023-02-28T09:32:37;8.90;;;6.43;;
70253;SDS011;57649;42.968;1.608;2023-02-28T09:35:02;6.30;;;4.40;;
70253;SDS011;57649;42.968;1.608;2023-02-28T09:37:29;9.82;;;5.38;;
70253;SDS011;57649;42.968;1.608;2023-02-28T09:39:55;8.32;;;5.07;;
70253;SDS011;57649;42.968;1.608;2023-02-28T09:42:22;5.70;;;4.65;;
70253;SDS011;57649;42.968;1.608;2023-02-28T09:44:54;5.10;;;4.25;;
70253;SDS011;57649;42.968;1.608;2023-02-28T09:47:25;10.70;;;4.97;;
70253;SDS011;57649;42.968;1.608;2023-02-28T09:49:58;5.97;;;4.50;;
70253;SDS011;57649;42.968;1.608;2023-02-28T09:52:38;5.10;;;4.25;;
70253;SDS011;57649;42.968;1.608;2023-02-28T09:55:25;5.93;;;4.07;;
70253;SDS011;57649;42.968;1.608;2023-02-28T09:57:55;9.45;;;6.50;;
70253;SDS011;57649;42.968;1.608;2023-02-28T10:00:27;5.97;;;5.15;;
70253;SDS011;57649;42.968;1.608;2023-02-28T10:03:10;7.32;;;4.15;;
70253;SDS011;57649;42.968;1.608;2023-02-28T10:08:29;10.68;;;9.02;;
70253;SDS011;57649;42.968;1.608;2023-02-28T10:11:00;5.57;;;4.28;;
70253;SDS011;57649;42.968;1.608;2023-02-28T10:16:01;8.60;;;4.50;;
70253;SDS011;57649;42.968;1.608;2023-02-28T10:18:57;7.22;;;4.30;;
70253;SDS011;57649;42.968;1.608;2023-02-28T10:21:30;7.10;;;4.00;;
70253;SDS011;57649;42.968;1.608;2023-02-28T10:24:05;7.68;;;4.28;;
70253;SDS011;57649;42.968;1.608;2023-02-28T10:26:43;6.65;;;4.47;;
70253;SDS011;57649;42.968;1.608;2023-02-28T10:29:12;8.07;;;4.40;;
70253;SDS011;57649;42.968;1.608;2023-02-28T10:31:37;7.10;;;5.28;;
70253;SDS011;57649;42.968;1.608;2023-02-28T10:34:04;6.88;;;4.80;;
70253;SDS011;57649;42.968;1.608;2023-02-28T10:36:31;9.38;;;4.50;;
70253;SDS011;57649;42.968;1.608;2023-02-28T10:38:57;8.05;;;4.30;;
70253;SDS011;57649;42.968;1.608;2023-02-28T10:41:29;11.23;;;5.10;;
70253;SDS011;57649;42.968;1.608;2023-02-28T10:44:14;8.70;;;4.45;;
70253;SDS011;57649;42.968;1.608;2023-02-28T10:46:45;5.13;;;3.78;;
70253;SDS011;57649;42.968;1.608;2023-02-28T10:49:15;5.85;;;4.35;;
70253;SDS011;57649;42.968;1.608;2023-02-28T10:51:46;6.22;;;3.83;;
70253;SDS011;57649;42.968;1.608;2023-02-28T10:54:33;6.50;;;5.05;;
70253;SDS011;57649;42.968;1.608;2023-02-28T10:57:05;7.18;;;4.72;;
70253;SDS011;57649;42.968;1.608;2023-02-28T10:59:45;6.18;;;4.25;;
70253;SDS011;57649;42.968;1.608;2023-02-28T11:02:31;4.70;;;4.20;;
70253;SDS011;57649;42.968;1.608;2023-02-28T11:04:58;5.40;;;4.50;;
70253;SDS011;57649;42.968;1.608;2023-02-28T11:07:25;6.72;;;4.82;;
70253;SDS011;57649;42.968;1.608;2023-02-28T11:09:53;8.95;;;6.13;;
70253;SDS011;57649;42.968;1.608;2023-02-28T11:12:37;5.88;;;4.43;;
70253;SDS011;57649;42.968;1.608;2023-02-28T11:15:05;9.05;;;4.50;;
70253;SDS011;57649;42.968;1.608;2023-02-28T11:17:53;7.53;;;4.07;;
70253;SDS011;57649;42.968;1.608;2023-02-28T11:20:25;5.57;;;4.60;;
70253;SDS011;57649;42.968;1.608;2023-02-28T11:22:53;5.63;;;4.38;;
70253;SDS011;57649;42.968;1.608;2023-02-28T11:28:01;5.13;;;4.32;;
70253;SDS011;57649;42.968;1.608;2023-02-28T11:30:38;6.57;;;4.68;;
70253;SDS011;57649;42.968;1.608;2023-02-28T11:36:11;7.13;;;4.90;;
70253;SDS011;57649;42.968;1.608;2023-02-28T11:38:39;4.63;;;4.05;;
70253;SDS011;57649;42.968;1.608;2023-02-28T11:41:13;4.60;;;4.15;;
70253;SDS011;57649;42.968;1.608;2023-02-28T11:46:49;6.72;;;4.40;;
70253;SDS011;57649;42.968;1.608;2023-02-28T11:57:56;6.97;;;5.07;;
70253;SDS011;57649;42.968;1.608;2023-02-28T12:08:53;11.73;;;5.40;;
70253;SDS011;57649;42.968;1.608;2023-02-28T12:11:54;6.32;;;4.85;;
70253;SDS011;57649;42.968;1.608;2023-02-28T12:14:29;6.57;;;5.03;;
70253;SDS011;57649;42.968;1.608;2023-02-28T12:28:41;5.82;;;4.80;;
70253;SDS011;57649;42.968;1.608;2023-02-28T12:31:21;5.30;;;4.68;;
70253;SDS011;57649;42.968;1.608;2023-02-28T12:34:03;6.80;;;4.63;;
70253;SDS011;57649;42.968;1.608;2023-02-28T12:36:35;5.70;;;4.75;;
70253;SDS011;57649;42.968;1.608;2023-02-28T12:39:03;8.00;;;5.03;;
70253;SDS011;57649;42.968;1.608;2023-02-28T12:44:27;8.15;;;4.88;;
70253;SDS011;57649;42.968;1.608;2023-02-28T12:46:55;6.55;;;5.00;;
70253;SDS011;57649;42.968;1.608;2023-02-28T12:52:06;7.50;;;5.47;;
70253;SDS011;57649;42.968;1.608;2023-02-28T12:54:38;8.00;;;5.35;;
70253;SDS011;57649;42.968;1.608;2023-02-28T12:57:22;5.82;;;5.10;;
70253;SDS011;57649;42.968;1.608;2023-02-28T12:59:51;9.93;;;6.22;;
70253;SDS011;57649;42.968;1.608;2023-02-28T13:10:39;8.02;;;5.63;;
70253;SDS011;57649;42.968;1.608;2023-02-28T13:13:19;8.63;;;5.55;;
70253;SDS011;57649;42.968;1.608;2023-02-28T13:15:57;6.65;;;5.10;;
70253;SDS011;57649;42.968;1.608;2023-02-28T13:21:05;8.40;;;5.38;;
70253;SDS011;57649;42.968;1.608;2023-02-28T13:23:37;8.80;;;4.88;;
70253;SDS011;57649;42.968;1.608;2023-02-28T13:26:05;8.88;;;5.45;;
70253;SDS011;57649;42.968;1.608;2023-02-28T13:31:25;9.77;;;5.90;;
70253;SDS011;57649;42.968;1.608;2023-02-28T13:36:23;5.68;;;4.93;;
70253;SDS011;57649;42.968;1.608;2023-02-28T13:38:52;8.65;;;5.60;;
70253;SDS011;57649;42.968;1.608;2023-02-28T13:51:52;9.43;;;6.47;;
70253;SDS011;57649;42.968;1.608;2023-02-28T13:56:48;5.85;;;4.97;;
70253;SDS011;57649;42.968;1.608;2023-02-28T14:00:09;8.45;;;6.50;;
70253;SDS011;57649;42.968;1.608;2023-02-28T14:05:33;10.20;;;5.57;;
70253;SDS011;57649;42.968;1.608;2023-02-28T14:08:00;10.98;;;6.00;;
70253;SDS011;57649;42.968;1.608;2023-02-28T14:10:42;7.25;;;5.32;;
70253;SDS011;57649;42.968;1.608;2023-02-28T14:13:36;8.73;;;6.15;;
70253;SDS011;57649;42.968;1.608;2023-02-28T14:16:05;10.82;;;6.03;;
70253;SDS011;57649;42.968;1.608;2023-02-28T14:18:35;8.55;;;5.18;;
70253;SDS011;57649;42.968;1.608;2023-02-28T14:32:22;5.82;;;5.22;;
70253;SDS011;57649;42.968;1.608;2023-02-28T14:35:16;8.75;;;6.13;;
70253;SDS011;57649;42.968;1.608;2023-02-28T14:37:53;11.68;;;5.95;;
70253;SDS011;57649;42.968;1.608;2023-02-28T14:40:27;8.05;;;6.05;;
70253;SDS011;57649;42.968;1.608;2023-02-28T14:42:56;8.35;;;5.50;;
70253;SDS011;57649;42.968;1.608;2023-02-28T14:45:24;7.70;;;5.57;;
70253;SDS011;57649;42.968;1.608;2023-02-28T14:47:53;8.32;;;5.35;;
70253;SDS011;57649;42.968;1.608;2023-02-28T14:50:24;8.75;;;5.93;;
70253;SDS011;57649;42.968;1.608;2023-02-28T14:52:54;7.78;;;5.78;;
70253;SDS011;57649;42.968;1.608;2023-02-28T14:55:23;15.25;;;7.88;;
70253;SDS011;57649;42.968;1.608;2023-02-28T14:57:55;15.18;;;8.32;;
70253;SDS011;57649;42.968;1.608;2023-02-28T15:02:52;6.65;;;5.55;;
70253;SDS011;57649;42.968;1.608;2023-02-28T15:05:29;9.07;;;6.00;;
70253;SDS011;57649;42.968;1.608;2023-02-28T15:08:15;20.08;;;12.65;;
70253;SDS011;57649;42.968;1.608;2023-02-28T15:13:18;9.35;;;6.85;;
70253;SDS011;57649;42.968;1.608;2023-02-28T15:16:28;7.13;;;5.25;;
70253;SDS011;57649;42.968;1.608;2023-02-28T15:21:17;17.30;;;9.40;;
70253;SDS011;57649;42.968;1.608;2023-02-28T15:23:47;7.45;;;5.78;;
70253;SDS011;57649;42.968;1.608;2023-02-28T15:26:16;15.68;;;7.22;;
70253;SDS011;57649;42.968;1.608;2023-02-28T15:28:46;6.90;;;5.05;;
70253;SDS011;57649;42.968;1.608;2023-02-28T15:31:28;12.85;;;5.43;;
70253;SDS011;57649;42.968;1.608;2023-02-28T15:33:56;6.88;;;5.55;;
70253;SDS011;57649;42.968;1.608;2023-02-28T15:36:29;8.63;;;6.50;;
70253;SDS011;57649;42.968;1.608;2023-02-28T15:38:56;9.38;;;6.85;;
70253;SDS011;57649;42.968;1.608;2023-02-28T15:41:35;10.30;;;6.75;;
70253;SDS011;57649;42.968;1.608;2023-02-28T15:44:22;8.85;;;5.90;;
70253;SDS011;57649;42.968;1.608;2023-02-28T15:47:14;8.55;;;5.57;;
70253;SDS011;57649;42.968;1.608;2023-02-28T15:49:45;8.07;;;5.53;;
70253;SDS011;57649;42.968;1.608;2023-02-28T15:52:15;6.95;;;5.70;;
70253;SDS011;57649;42.968;1.608;2023-02-28T15:54:43;11.13;;;5.93;;
70253;SDS011;57649;42.968;1.608;2023-02-28T15:57:13;9.75;;;6.25;;
70253;SDS011;57649;42.968;1.608;2023-02-28T15:59:48;13.35;;;6.57;;
70253;SDS011;57649;42.968;1.608;2023-02-28T16:02:19;7.70;;;5.70;;
70253;SDS011;57649;42.968;1.608;2023-02-28T16:04:56;10.27;;;6.60;;
70253;SDS011;57649;42.968;1.608;2023-02-28T16:07:31;9.85;;;6.10;;
70253;SDS011;57649;42.968;1.608;2023-02-28T16:09:58;6.18;;;5.53;;
70253;SDS011;57649;42.968;1.608;2023-02-28T16:12:25;10.13;;;5.90;;
70253;SDS011;57649;42.968;1.608;2023-02-28T16:14:54;15.50;;;7.20;;
70253;SDS011;57649;42.968;1.608;2023-02-28T16:17:23;12.90;;;7.20;;
70253;SDS011;57649;42.968;1.608;2023-02-28T16:19:53;8.73;;;6.35;;
70253;SDS011;57649;42.968;1.608;2023-02-28T16:22:19;8.55;;;7.03;;
70253;SDS011;57649;42.968;1.608;2023-02-28T16:24:45;9.75;;;7.50;;
70253;SDS011;57649;42.968;1.608;2023-02-28T16:27:19;9.93;;;7.00;;
70253;SDS011;57649;42.968;1.608;2023-02-28T16:29:49;11.93;;;7.03;;
70253;SDS011;57649;42.968;1.608;2023-02-28T16:32:15;9.20;;;7.53;;
70253;SDS011;57649;42.968;1.608;2023-02-28T16:34:41;10.02;;;6.53;;
70253;SDS011;57649;42.968;1.608;2023-02-28T16:37:14;7.10;;;5.70;;
70253;SDS011;57649;42.968;1.608;2023-02-28T16:39:42;8.60;;;5.70;;
70253;SDS011;57649;42.968;1.608;2023-02-28T16:42:26;7.20;;;5.50;;
70253;SDS011;57649;42.968;1.608;2023-02-28T16:44:53;12.65;;;6.68;;
70253;SDS011;57649;42.968;1.608;2023-02-28T16:47:20;11.75;;;6.80;;
70253;SDS011;57649;42.968;1.608;2023-02-28T16:49:45;8.90;;;7.03;;
70253;SDS011;57649;42.968;1.608;2023-02-28T16:52:12;10.77;;;7.35;;
70253;SDS011;57649;42.968;1.608;2023-02-28T16:54:38;13.57;;;11.13;;
70253;SDS011;57649;42.968;1.608;2023-02-28T16:57:04;15.45;;;7.93;;
70253;SDS011;57649;42.968;1.608;2023-02-28T16:59:31;8.52;;;6.45;;
70253;SDS011;57649;42.968;1.608;2023-02-28T17:01:58;8.73;;;5.85;;
70253;SDS011;57649;42.968;1.608;2023-02-28T17:04:24;7.07;;;5.72;;
70253;SDS011;57649;42.968;1.608;2023-02-28T17:06:51;7.32;;;5.85;;
70253;SDS011;57649;42.968;1.608;2023-02-28T17:09:17;10.73;;;6.93;;
70253;SDS011;57649;42.968;1.608;2023-02-28T17:11:45;7.78;;;6.18;;
70253;SDS011;57649;42.968;1.608;2023-02-28T17:14:11;11.73;;;6.35;;
70253;SDS011;57649;42.968;1.608;2023-02-28T17:16:37;8.02;;;5.88;;
70253;SDS011;57649;42.968;1.608;2023-02-28T17:19:09;9.57;;;5.82;;
70253;SDS011;57649;42.968;1.608;2023-02-28T17:21:36;6.95;;;5.57;;
70253;SDS011;57649;42.968;1.608;2023-02-28T17:24:02;7.55;;;6.63;;
70253;SDS011;57649;42.968;1.608;2023-02-28T17:26:28;8.23;;;6.18;;
70253;SDS011;57649;42.968;1.608;2023-02-28T17:28:54;8.98;;;6.05;;